createdAt,value
2023-03-27T00:01:28.602Z,97428.44
2023-03-27T00:03:55.920Z,97418.72
2023-03-27T00:06:27.354Z,97425.19
2023-03-27T00:08:54.574Z,97404.34
2023-03-27T00:11:22.428Z,97417.69
2023-03-27T00:13:55.068Z,97432.38
2023-03-27T00:16:24.301Z,97429.63
2023-03-27T00:18:51.748Z,97433.06
2023-03-27T00:21:19.561Z,97446.19
2023-03-27T00:23:47.030Z,97422.53
2023-03-27T00:26:14.559Z,97427.63
2023-03-27T00:28:42.273Z,97421.03
2023-03-27T00:31:22.631Z,97431.00
2023-03-27T00:33:53.052Z,97441.31
2023-03-27T00:36:23.312Z,97423.25
2023-03-27T00:38:53.326Z,97445.28
2023-03-27T00:41:21.535Z,97440.16
2023-03-27T00:43:50.597Z,97419.91
2023-03-27T00:46:42.587Z,97449.66
2023-03-27T00:49:12.446Z,97430.19
2023-03-27T00:51:41.859Z,97432.88
2023-03-27T00:54:10.005Z,97443.41
2023-03-27T00:56:38.862Z,97418.72
2023-03-27T00:59:15.691Z,97427.06
2023-03-27T01:01:47.729Z,97431.38
2023-03-27T01:04:20.602Z,97433.13
2023-03-27T01:06:52.036Z,97424.66
2023-03-27T01:09:22.021Z,97434.28
2023-03-27T01:12:24.248Z,97445.97
2023-03-27T01:15:27.278Z,97430.22
2023-03-27T01:18:06.391Z,97447.13
2023-03-27T01:21:06.394Z,97442.28
2023-03-27T01:24:22.094Z,97435.41
2023-03-27T01:26:57.742Z,97443.06
2023-03-27T01:29:50.570Z,97449.19
2023-03-27T01:32:28.719Z,97428.00
2023-03-27T01:35:32.042Z,97412.63
2023-03-27T01:38:07.809Z,97437.72
2023-03-27T01:41:10.652Z,97439.94
2023-03-27T01:43:46.325Z,97420.56
2023-03-27T01:46:31.765Z,97430.75
2023-03-27T01:49:13.427Z,97441.41
2023-03-27T01:51:44.898Z,97417.22
2023-03-27T01:54:26.122Z,97438.28
2023-03-27T01:57:02.696Z,97438.97
2023-03-27T01:59:33.888Z,97424.00
2023-03-27T02:02:05.008Z,97421.00
2023-03-27T02:04:44.759Z,97420.34
2023-03-27T02:07:23.276Z,97436.31
2023-03-27T02:09:54.313Z,97413.16
2023-03-27T02:12:24.713Z,97432.25
2023-03-27T02:14:55.456Z,97438.38
2023-03-27T02:17:51.070Z,97424.38
2023-03-27T02:20:20.145Z,97431.19
2023-03-27T02:22:50.338Z,97427.34
2023-03-27T02:25:42.195Z,97443.91
2023-03-27T02:28:29.619Z,97456.50
2023-03-27T02:31:32.131Z,97452.84
2023-03-27T02:34:29.980Z,97460.28
2023-03-27T02:37:32.433Z,97453.03
2023-03-27T02:41:08.565Z,97459.75
2023-03-27T02:44:16.010Z,97453.84
2023-03-27T02:47:31.052Z,97455.81
2023-03-27T02:50:07.570Z,97447.38
2023-03-27T02:52:48.167Z,97464.06
2023-03-27T02:55:35.077Z,97454.69
2023-03-27T02:58:08.082Z,97453.63
2023-03-27T03:01:00.114Z,97452.31
2023-03-27T03:03:54.018Z,97455.69
2023-03-27T03:07:09.409Z,97467.88
2023-03-27T03:09:40.343Z,97458.00
2023-03-27T03:12:10.104Z,97466.94
2023-03-27T03:14:46.089Z,97465.19
2023-03-27T03:17:14.784Z,97452.91
2023-03-27T03:19:44.832Z,97459.69
2023-03-27T03:22:14.888Z,97461.06
2023-03-27T03:24:43.181Z,97466.75
2023-03-27T03:27:16.098Z,97454.34
2023-03-27T03:30:07.651Z,97464.53
2023-03-27T03:32:41.576Z,97453.56
2023-03-27T03:35:10.101Z,97455.50
2023-03-27T03:37:39.441Z,97465.25
2023-03-27T03:40:12.913Z,97470.25
2023-03-27T03:42:50.458Z,97472.13
2023-03-27T03:45:20.673Z,97454.94
2023-03-27T03:47:47.813Z,97449.84
2023-03-27T03:50:15.319Z,97471.59
2023-03-27T03:52:43.455Z,97476.50
2023-03-27T03:55:12.135Z,97477.66
2023-03-27T03:57:40.309Z,97463.41
2023-03-27T04:00:12.716Z,97470.03
2023-03-27T04:02:52.541Z,97464.72
2023-03-27T04:05:20.929Z,97446.31
2023-03-27T04:07:52.992Z,97444.97
2023-03-27T04:10:41.412Z,97442.56
2023-03-27T04:13:24.718Z,97455.06
2023-03-27T04:16:04.227Z,97453.56
2023-03-27T04:19:09.309Z,97453.69
2023-03-27T04:21:42.664Z,97433.53
2023-03-27T04:24:14.225Z,97439.66
2023-03-27T04:26:45.125Z,97462.16
2023-03-27T04:29:15.332Z,97458.44
2023-03-27T04:32:00.700Z,97463.66
2023-03-27T04:34:42.712Z,97463.16
2023-03-27T04:37:32.592Z,97468.50
2023-03-27T04:40:25.478Z,97472.88
2023-03-27T04:42:53.052Z,97458.41
2023-03-27T04:45:25.880Z,97464.41
2023-03-27T04:47:55.240Z,97469.03
2023-03-27T04:50:22.837Z,97472.28
2023-03-27T04:52:51.870Z,97471.03
2023-03-27T04:55:20.356Z,97451.81
2023-03-27T04:57:57.602Z,97473.56
2023-03-27T05:00:24.926Z,97459.88
2023-03-27T05:03:12.023Z,97471.97
2023-03-27T05:06:16.512Z,97476.13
2023-03-27T05:08:43.553Z,97486.41
2023-03-27T05:11:23.744Z,97461.91
2023-03-27T05:13:51.200Z,97455.16
2023-03-27T05:16:22.466Z,97465.59
2023-03-27T05:18:54.716Z,97468.63
2023-03-27T05:21:22.725Z,97465.00
2023-03-27T05:23:59.564Z,97467.53
2023-03-27T05:26:29.852Z,97450.63
2023-03-27T05:29:02.759Z,97476.81
2023-03-27T05:44:27.842Z,97476.59
2023-03-27T06:11:05.335Z,97478.75
2023-03-27T06:13:41.210Z,97504.88
2023-03-27T06:32:02.157Z,97520.59
2023-03-27T06:35:06.496Z,97512.81
2023-03-27T06:41:34.637Z,97527.69
2023-03-27T06:48:37.316Z,97526.47
2023-03-27T06:51:31.712Z,97499.94
2023-03-27T06:54:23.243Z,97517.31
2023-03-27T07:03:49.102Z,97525.66
2023-03-27T07:26:56.964Z,97505.22
2023-03-27T07:29:45.118Z,97503.78
2023-03-27T07:52:01.364Z,97523.81
2023-03-27T07:58:07.309Z,97508.50
2023-03-27T08:03:41.697Z,97495.81
2023-03-27T08:06:19.366Z,97532.06
2023-03-27T08:11:39.723Z,97508.81
2023-03-27T08:21:14.401Z,97534.56
2023-03-27T08:27:00.864Z,97536.19
2023-03-27T08:46:46.194Z,97529.16
2023-03-27T08:52:49.247Z,97554.50
2023-03-27T08:55:42.465Z,97534.13
2023-03-27T08:58:28.568Z,97554.59
2023-03-27T09:01:45.882Z,97550.59
2023-03-27T09:04:38.177Z,97547.72
2023-03-27T09:07:24.920Z,97561.13
2023-03-27T09:10:13.256Z,97562.19
2023-03-27T09:12:46.804Z,97555.38
2023-03-27T09:15:42.900Z,97553.22
2023-03-27T09:18:37.999Z,97538.28
2023-03-27T09:24:31.334Z,97566.00
2023-03-27T09:27:29.240Z,97544.44
2023-03-27T09:34:29.286Z,97563.75
2023-03-27T09:37:02.807Z,97536.81
2023-03-27T09:39:34.417Z,97544.84
2023-03-27T09:42:32.013Z,97559.03
2023-03-27T09:45:14.637Z,97554.56
2023-03-27T09:48:04.216Z,97564.91
2023-03-27T09:50:47.671Z,97555.78
2023-03-27T09:53:33.080Z,97555.31
2023-03-27T09:56:14.072Z,97570.16
2023-03-27T09:59:26.211Z,97564.91
2023-03-27T10:02:00.430Z,97575.75
2023-03-27T10:04:32.226Z,97566.91
2023-03-27T10:07:09.181Z,97563.00
2023-03-27T10:10:05.668Z,97575.19
2023-03-27T10:12:41.186Z,97562.84
2023-03-27T10:15:32.780Z,97576.03
2023-03-27T10:24:35.040Z,97562.56
2023-03-27T10:27:41.574Z,97580.69
2023-03-27T10:30:48.690Z,97572.84
2023-03-27T10:33:41.639Z,97565.00
2023-03-27T10:36:17.573Z,97576.22
2023-03-27T10:38:55.021Z,97582.91
2023-03-27T10:41:31.162Z,97595.72
2023-03-27T10:44:02.572Z,97606.97
2023-03-27T10:46:30.622Z,97597.50
2023-03-27T10:49:36.846Z,97602.59
2023-03-27T10:52:18.274Z,97612.31
2023-03-27T10:55:12.592Z,97603.59
2023-03-27T10:57:42.774Z,97606.00
2023-03-27T11:00:13.823Z,97618.53
2023-03-27T11:03:05.968Z,97613.88
2023-03-27T11:05:47.493Z,97619.53
2023-03-27T11:08:45.556Z,97623.75
2023-03-27T11:14:04.024Z,97632.69
2023-03-27T11:16:36.956Z,97629.59
2023-03-27T11:19:34.085Z,97628.03
2023-03-27T11:22:34.068Z,97615.28
2023-03-27T11:25:12.292Z,97627.78
2023-03-27T11:27:48.569Z,97605.22
2023-03-27T11:30:32.738Z,97643.59
2023-03-27T11:33:05.906Z,97640.34
2023-03-27T11:35:41.942Z,97635.19
2023-03-27T11:38:33.844Z,97633.47
2023-03-27T11:41:03.941Z,97633.16
2023-03-27T11:43:42.182Z,97624.78
2023-03-27T11:46:44.667Z,97652.88
2023-03-27T11:49:16.716Z,97651.75
2023-03-27T11:52:06.232Z,97632.81
2023-03-27T11:54:54.605Z,97651.47
2023-03-27T11:57:28.507Z,97662.09
2023-03-27T12:00:25.819Z,97641.19
2023-03-27T12:03:07.151Z,97661.38
2023-03-27T12:05:48.871Z,97666.84
2023-03-27T12:08:45.478Z,97656.94
2023-03-27T12:11:13.976Z,97651.50
2023-03-27T12:14:18.746Z,97649.47
2023-03-27T12:17:21.133Z,97660.66
2023-03-27T12:19:59.000Z,97658.00
2023-03-27T12:31:33.492Z,97665.53
2023-03-27T12:34:56.553Z,97637.56
2023-03-27T12:45:12.202Z,97669.94
2023-03-27T12:48:31.083Z,97657.06
2023-03-27T12:52:00.727Z,97675.25
2023-03-27T12:55:23.983Z,97686.16
2023-03-27T12:57:57.936Z,97683.91
2023-03-27T13:01:01.161Z,97658.81
2023-03-27T13:04:13.569Z,97693.03
2023-03-27T13:06:41.747Z,97683.28
2023-03-27T13:09:37.288Z,97688.69
2023-03-27T13:12:28.444Z,97689.94
2023-03-27T13:15:36.468Z,97692.91
2023-03-27T13:18:27.527Z,97697.03
2023-03-27T13:24:55.884Z,97697.47
2023-03-27T13:28:04.641Z,97696.38
2023-03-27T13:30:51.940Z,97688.69
2023-03-27T13:33:48.321Z,97696.75
2023-03-27T13:36:47.149Z,97685.84
2023-03-27T13:39:26.952Z,97684.22
2023-03-27T13:42:33.712Z,97695.56
2023-03-27T13:45:29.481Z,97707.56
2023-03-27T13:49:18.711Z,97705.22
2023-03-27T13:52:32.671Z,97707.34
2023-03-27T13:55:28.447Z,97714.16
2023-03-27T13:58:45.910Z,97707.72
2023-03-27T14:01:25.742Z,97714.00
2023-03-27T14:04:25.939Z,97729.19
2023-03-27T14:07:21.389Z,97739.53
2023-03-27T14:10:20.322Z,97727.16
2023-03-27T14:13:34.552Z,97727.03
2023-03-27T14:16:17.443Z,97725.59
2023-03-27T14:19:12.454Z,97729.59
2023-03-27T14:22:19.650Z,97720.13
2023-03-27T14:24:59.449Z,97736.72
2023-03-27T14:28:00.563Z,97708.47
2023-03-27T14:30:42.845Z,97730.00
2023-03-27T14:33:32.488Z,97768.66
2023-03-27T14:36:05.941Z,97723.19
2023-03-27T14:38:38.657Z,97752.34
2023-03-27T14:41:33.605Z,97744.81
2023-03-27T14:44:05.590Z,97748.00
2023-03-27T14:50:30.464Z,97761.50
2023-03-27T14:53:00.159Z,97765.09
2023-03-27T14:56:26.281Z,97791.38
2023-03-27T14:59:15.303Z,97794.13
2023-03-27T15:02:06.598Z,97764.38
2023-03-27T15:04:40.582Z,97779.56
2023-03-27T15:07:28.929Z,97794.59
2023-03-27T15:10:37.906Z,97804.00
2023-03-27T15:13:10.917Z,97803.34
2023-03-27T15:15:47.111Z,97787.19
2023-03-27T15:18:22.821Z,97820.56
2023-03-27T15:21:07.016Z,97797.06
2023-03-27T15:23:41.546Z,97832.34
2023-03-27T15:26:25.120Z,97832.72
2023-03-27T15:35:48.479Z,97847.94
2023-03-27T15:39:04.853Z,97831.56
2023-03-27T15:41:37.412Z,97847.94
2023-03-27T15:44:08.528Z,97848.28
2023-03-27T15:47:01.231Z,97858.38
2023-03-27T15:49:44.068Z,97864.66
2023-03-27T15:52:35.585Z,97866.38
2023-03-27T15:55:04.244Z,97860.09
2023-03-27T15:57:36.388Z,97868.47
2023-03-27T16:00:27.545Z,97878.34
2023-03-27T16:02:56.433Z,97870.34
2023-03-27T16:08:39.120Z,97902.41
2023-03-27T16:11:10.057Z,97896.00
2023-03-27T16:13:53.245Z,97916.69
2023-03-27T16:20:02.236Z,97930.66
2023-03-27T16:31:54.198Z,97911.13
2023-03-27T16:41:26.026Z,97929.31
2023-03-27T16:43:58.205Z,97916.28
2023-03-27T16:50:29.704Z,97959.06
2023-03-27T16:53:02.754Z,97937.53
2023-03-27T16:55:30.070Z,97957.16
2023-03-27T16:58:06.463Z,97945.66
2023-03-27T17:03:28.157Z,97959.16
2023-03-27T17:09:03.063Z,97966.38
2023-03-27T17:11:32.720Z,97979.38
2023-03-27T17:16:52.263Z,97974.22
2023-03-27T17:22:27.768Z,97964.22
2023-03-27T17:25:18.837Z,97960.63
2023-03-27T17:28:01.594Z,97959.00
2023-03-27T17:31:04.443Z,97962.56
2023-03-27T17:36:44.753Z,97964.91
2023-03-27T17:39:30.380Z,97998.03
2023-03-27T17:44:58.245Z,98014.16
2023-03-27T17:48:50.575Z,98020.91
2023-03-27T17:51:17.734Z,98005.28
2023-03-27T17:53:49.217Z,98011.34
2023-03-27T17:56:16.861Z,98012.25
2023-03-27T17:58:50.647Z,98002.13
2023-03-27T18:01:23.161Z,98014.56
2023-03-27T18:03:53.342Z,98052.47
2023-03-27T18:06:27.082Z,98018.28
2023-03-27T18:08:56.192Z,98016.28
2023-03-27T18:11:24.469Z,98059.09
2023-03-27T18:34:00.374Z,98074.69
2023-03-27T18:36:44.280Z,98047.34
2023-03-27T18:39:22.064Z,98050.81
2023-03-27T18:41:49.940Z,98046.38
2023-03-27T18:44:18.421Z,98061.19
2023-03-27T18:46:49.199Z,98063.72
2023-03-27T18:49:24.710Z,98077.06
2023-03-27T18:51:54.904Z,98094.88
2023-03-27T18:54:28.750Z,98064.03
2023-03-27T18:56:57.047Z,98090.78
2023-03-27T18:59:24.406Z,98084.78
2023-03-27T19:01:51.771Z,98093.53
2023-03-27T19:04:25.811Z,98084.19
2023-03-27T19:06:54.604Z,98106.06
2023-03-27T19:09:31.217Z,98118.38
2023-03-27T19:12:15.004Z,98121.63
2023-03-27T19:14:47.664Z,98121.63
2023-03-27T19:17:35.502Z,98135.94
2023-03-27T19:20:09.835Z,98110.50
2023-03-27T19:23:00.433Z,98150.84
2023-03-27T19:25:50.752Z,98127.19
2023-03-27T19:28:36.038Z,98161.66
2023-03-27T19:34:42.723Z,98167.50
2023-03-27T19:37:17.298Z,98172.25
2023-03-27T19:39:48.262Z,98157.78
2023-03-27T19:42:29.807Z,98184.47
2023-03-27T19:45:02.098Z,98166.16
2023-03-27T19:47:36.060Z,98187.31
2023-03-27T19:53:31.676Z,98170.91
2023-03-27T19:56:00.079Z,98179.44
2023-03-27T19:58:30.729Z,98166.16
2023-03-27T20:00:58.406Z,98186.63
2023-03-27T20:03:25.760Z,98186.19
2023-03-27T20:08:43.461Z,98196.56
2023-03-27T20:11:26.180Z,98166.84
2023-03-27T20:13:57.208Z,98185.06
2023-03-27T20:16:29.423Z,98191.72
2023-03-27T20:21:48.614Z,98169.34
2023-03-27T20:24:18.981Z,98186.44
2023-03-27T20:26:57.496Z,98188.78
2023-03-27T20:29:27.386Z,98173.09
2023-03-27T20:31:55.000Z,98169.63
2023-03-27T20:34:28.624Z,98175.41
2023-03-27T20:37:01.063Z,98193.00
2023-03-27T20:39:47.340Z,98208.09
2023-03-27T20:45:20.407Z,98203.75
2023-03-27T20:47:52.148Z,98211.25
2023-03-27T20:58:07.985Z,98206.69
2023-03-27T21:00:48.047Z,98184.25
2023-03-27T21:06:10.507Z,98189.19
2023-03-27T21:08:40.261Z,98183.13
2023-03-27T21:11:08.762Z,98197.28
2023-03-27T21:13:42.328Z,98193.59
2023-03-27T21:16:31.211Z,98213.84
2023-03-27T21:19:12.362Z,98212.56
2023-03-27T21:21:46.489Z,98217.25
2023-03-27T21:24:24.125Z,98182.31
2023-03-27T21:47:47.246Z,98244.00
2023-03-27T21:50:23.238Z,98216.16
2023-03-27T21:52:57.551Z,98220.91
2023-03-27T21:55:34.426Z,98227.44
2023-03-27T21:58:15.090Z,98232.78
2023-03-27T22:00:57.636Z,98245.84
2023-03-27T22:06:57.589Z,98249.13
2023-03-27T22:09:30.557Z,98245.41
2023-03-27T22:12:02.475Z,98254.22
2023-03-27T22:17:31.677Z,98284.09
2023-03-27T22:20:11.526Z,98287.78
2023-03-27T22:22:51.532Z,98292.88
2023-03-27T22:25:21.130Z,98280.81
2023-03-27T22:27:51.605Z,98292.09
2023-03-27T22:30:23.501Z,98290.44
2023-03-27T22:32:56.814Z,98269.97
2023-03-27T22:35:28.397Z,98281.84
2023-03-27T22:37:57.358Z,98287.16
2023-03-27T22:40:26.660Z,98325.44
2023-03-27T22:42:56.397Z,98328.50
2023-03-27T22:45:27.413Z,98311.91
2023-03-27T22:48:03.785Z,98309.25
2023-03-27T22:50:41.166Z,98324.41
2023-03-27T22:55:57.925Z,98313.94
2023-03-27T22:58:27.342Z,98314.13
2023-03-27T23:00:58.243Z,98323.94
2023-03-27T23:03:32.474Z,98319.44
2023-03-27T23:06:03.953Z,98307.56
2023-03-27T23:08:35.357Z,98337.03
2023-03-27T23:11:12.189Z,98306.53
2023-03-27T23:13:44.969Z,98315.88
2023-03-27T23:16:13.424Z,98321.63
2023-03-27T23:18:44.359Z,98312.56
2023-03-27T23:21:13.686Z,98328.34
2023-03-27T23:23:42.533Z,98322.38
2023-03-27T23:26:34.932Z,98337.50
2023-03-27T23:29:02.453Z,98314.31
2023-03-27T23:31:29.653Z,98320.19
2023-03-27T23:33:56.858Z,98323.69
2023-03-27T23:36:49.714Z,98345.63
2023-03-27T23:39:17.542Z,98338.66
2023-03-27T23:41:44.924Z,98338.00
2023-03-27T23:44:12.216Z,98330.63
2023-03-27T23:46:40.022Z,98342.34
2023-03-27T23:49:07.968Z,98350.72
2023-03-27T23:51:37.329Z,98352.16
2023-03-27T23:54:04.572Z,98348.25
2023-03-27T23:56:37.270Z,98338.19
2023-03-27T23:59:05.631Z,98336.53
